Time;durP1;ratioP1;P1;durP2;ratioP2;P2;SDS_P1;SDS_P2;PMS_P1;PMS_P2;Temp;Humidity;BMP_temperature;BMP_pressure;BME280_temperature;BME280_humidity;BME280_pressure;Samples;Min_cycle;Max_cycle;Signal;HPM_P1;HPM_P2
2021/03/12 00:01:31;;;;;;;1.77;1.67;;;6.50;99.90;;;6.93;100.00;120058.66;5053035;28;20213;-72
2021/03/12 00:03:59;;;;;;;0.70;0.60;;;6.60;99.90;;;6.74;100.00;119024.84;5052950;28;20217;-73
2021/03/12 00:06:25;;;;;;;0.70;0.60;;;6.40;99.90;;;6.71;100.00;118022.59;5053059;28;20415;-73
2021/03/12 00:08:54;;;;;;;0.70;0.60;;;6.40;99.90;;;6.76;100.00;116041.44;5048376;28;20571;-71
2021/03/12 00:11:28;;;;;;;0.70;0.60;;;6.40;99.90;;;6.57;100.00;115338.88;5052510;28;20191;-70
2021/03/12 00:13:55;;;;;;;0.70;0.60;;;6.20;99.90;;;6.55;100.00;114009.63;5049314;28;20203;-72
2021/03/12 00:16:21;;;;;;;0.70;0.60;;;6.20;99.90;;;6.53;100.00;113675.19;5052663;28;20200;-72
2021/03/12 00:18:49;;;;;;;0.70;0.60;;;6.10;99.90;;;6.51;100.00;112676.06;5050057;28;20217;-72
2021/03/12 00:21:16;;;;;;;0.70;0.60;;;6.10;99.90;;;6.46;100.00;112335.00;5054235;28;20232;-71
2021/03/12 00:23:44;;;;;;;0.70;0.60;;;6.00;99.90;;;6.41;100.00;111662.78;5056981;28;20459;-72
2021/03/12 00:26:13;;;;;;;0.70;0.60;;;5.90;99.90;;;6.38;100.00;110333.44;5048103;28;20218;-72
2021/03/12 00:28:40;;;;;;;0.70;0.60;;;5.90;99.90;;;6.38;100.00;110332.50;5041139;28;20190;-72
2021/03/12 00:31:08;;;;;;;0.70;0.60;;;6.00;99.90;;;6.42;100.00;109679.00;5036302;28;20206;-72
2021/03/12 00:33:36;;;;;;;0.70;0.60;;;6.00;99.90;;;6.61;100.00;108059.00;5035723;28;20210;-71
2021/03/12 00:36:05;;;;;;;0.70;0.60;;;6.10;99.90;;;6.68;100.00;106085.75;5044067;28;20198;-73
2021/03/12 00:38:32;;;;;;;0.70;0.60;;;6.20;99.90;;;6.63;100.00;104092.34;5036605;28;20424;-72
2021/03/12 00:41:04;;;;;;;0.70;0.60;;;6.20;99.90;;;6.83;100.00;101814.34;5037488;28;20182;-74
2021/03/12 00:43:39;;;;;;;0.70;0.50;;;6.30;99.90;;;6.89;100.00;99512.06;5046768;28;20455;-72
2021/03/12 00:46:16;;;;;;;0.70;0.60;;;6.30;99.90;;;6.94;100.00;98860.09;5056578;28;20416;-73
2021/03/12 00:48:44;;;;;;;0.70;0.70;;;6.30;99.90;;;6.96;100.00;95891.44;5055182;28;20222;-73
2021/03/12 00:51:11;;;;;;;0.70;0.60;;;6.40;99.90;;;7.14;100.00;93941.47;5055121;28;20497;-73
2021/03/12 00:54:13;;;;;;;0.70;0.50;;;6.50;99.90;;;7.21;100.00;90654.97;5057595;28;20459;-70
2021/03/12 00:56:46;;;;;;;0.70;0.50;;;6.60;99.90;;;7.09;100.00;94593.09;5054833;28;20670;-69
2021/03/12 00:59:14;;;;;;;0.70;0.60;;;6.40;99.90;;;6.75;100.00;99818.94;5056555;28;20295;-68
2021/03/12 01:01:49;;;;;;;0.70;0.60;;;6.10;99.90;;;6.61;100.00;104088.75;5035058;28;20459;-70
2021/03/12 01:04:17;;;;;;;0.70;0.60;;;6.00;99.90;;;6.54;100.00;107715.88;5049008;28;20505;-69
2021/03/12 01:06:45;;;;;;;0.70;0.60;;;6.00;99.90;;;6.58;100.00;108715.34;5054722;28;20200;-68
2021/03/12 01:09:13;;;;;;;0.70;0.60;;;6.10;99.90;;;6.63;100.00;103762.69;5054328;28;20440;-71
2021/03/12 01:11:41;;;;;;;0.70;0.60;;;6.20;99.90;;;6.58;100.00;102430.84;5054363;28;20683;-70
2021/03/12 01:14:10;;;;;;;1.00;0.90;;;6.20;99.90;;;6.39;100.00;100087.38;5055154;28;20366;-71
2021/03/12 01:16:42;;;;;;;0.80;0.70;;;5.90;99.90;;;6.24;100.00;102041.88;5038845;28;20193;-70
2021/03/12 01:19:10;;;;;;;1.55;1.33;;;5.70;99.90;;;6.01;100.00;104973.88;5054311;28;20300;-71
2021/03/12 01:21:37;;;;;;;0.70;0.60;;;5.60;99.90;;;5.93;100.00;106942.63;5060734;28;20185;-71
2021/03/12 01:24:09;;;;;;;0.70;0.60;;;5.50;99.90;;;6.10;100.00;105650.22;5054054;28;20201;-72
2021/03/12 01:26:44;;;;;;;0.70;0.60;;;5.80;99.90;;;6.27;100.00;102378.31;5054468;28;20205;-71
2021/03/12 01:29:15;;;;;;;0.70;0.60;;;5.90;99.90;;;6.27;100.00;100397.38;5065040;28;20297;-72
2021/03/12 01:32:02;;;;;;;0.70;0.60;;;5.90;99.90;;;6.40;100.00;98768.09;5033708;28;20186;-70
2021/03/12 01:34:38;;;;;;;0.70;0.65;;;6.10;99.90;;;6.49;100.00;97133.84;5052939;28;20221;-70
2021/03/12 01:37:07;;;;;;;0.70;0.60;;;6.10;99.90;;;6.52;100.00;94501.69;5054154;28;20232;-73
2021/03/12 01:39:46;;;;;;;0.70;0.70;;;6.20;99.90;;;6.58;100.00;92203.03;5037446;28;20609;-71
2021/03/12 01:42:14;;;;;;;0.97;0.87;;;6.20;99.90;;;6.60;100.00;90889.50;5051113;28;20204;-72
2021/03/12 01:44:42;;;;;;;0.70;0.60;;;6.20;99.90;;;6.65;100.00;89251.00;5028024;28;20490;-71
2021/03/12 01:47:10;;;;;;;0.70;0.60;;;6.30;99.90;;;6.64;100.00;89577.88;5030543;28;20192;-73
2021/03/12 01:49:38;;;;;;;0.70;0.60;;;6.30;99.90;;;6.77;100.00;89269.72;5033646;28;20385;-71
2021/03/12 01:52:06;;;;;;;0.70;0.60;;;6.30;99.90;;;6.87;100.00;86650.16;5034020;28;20608;-73
2021/03/12 01:54:35;;;;;;;0.70;0.60;;;6.40;99.90;;;6.94;100.00;85674.31;5051658;28;20314;-70
2021/03/12 01:57:08;;;;;;;0.70;0.60;;;6.50;99.90;;;6.90;100.00;85010.41;5050779;28;20204;-72
2021/03/12 01:59:44;;;;;;;0.70;0.60;;;6.40;99.90;;;6.90;100.00;86984.56;5050780;28;20190;-72
2021/03/12 02:02:30;;;;;;;0.70;0.60;;;6.40;99.90;;;6.87;100.00;87308.34;5054858;28;20453;-72
2021/03/12 02:05:10;;;;;;;0.70;0.60;;;6.40;99.90;;;6.86;100.00;86319.59;5048711;28;20477;-72
2021/03/12 02:07:39;;;;;;;0.70;0.50;;;6.40;99.90;;;6.83;100.00;88618.94;5049588;28;20194;-71
2021/03/12 02:10:29;;;;;;;0.70;0.57;;;6.30;99.90;;;6.65;100.00;90897.41;5052881;28;20472;-71
2021/03/12 02:13:31;;;;;;;0.70;0.60;;;6.10;99.90;;;6.63;100.00;90234.81;5052765;28;20503;-70
2021/03/12 02:16:12;;;;;;;0.70;0.60;;;6.10;99.90;;;6.62;100.00;91222.00;5051213;28;20505;-71
2021/03/12 02:18:57;;;;;;;0.70;0.60;;;6.00;99.90;;;6.58;100.00;91215.66;5052464;28;20217;-72
2021/03/12 02:21:34;;;;;;;0.70;0.60;;;6.10;99.90;;;6.60;100.00;91218.84;5045281;28;20549;-72
2021/03/12 02:24:14;;;;;;;0.70;0.60;;;6.10;99.90;;;6.80;100.00;91908.84;5054760;28;20189;-72
2021/03/12 02:27:02;;;;;;;0.70;0.60;;;6.10;99.90;;;6.76;100.00;90914.84;5052246;28;20560;-72
2021/03/12 02:29:35;;;;;;;0.70;0.60;;;6.10;99.90;;;6.72;100.00;92555.09;5048570;28;20262;-71
2021/03/12 02:32:04;;;;;;;0.70;0.60;;;6.00;99.90;;;6.69;100.00;94858.59;5033599;28;20225;-72
2021/03/12 02:34:36;;;;;;;0.70;0.60;;;6.00;99.90;;;6.72;100.00;94204.06;5068921;28;20237;-71
2021/03/12 02:37:15;;;;;;;0.70;0.60;;;6.00;99.90;;;6.58;100.00;94840.41;5028104;28;20954;-73
2021/03/12 02:39:53;;;;;;;0.70;0.60;;;6.00;99.90;;;6.65;100.00;93862.91;5052945;28;20193;-71
2021/03/12 02:42:27;;;;;;;0.70;0.60;;;5.90;99.90;;;6.58;100.00;94510.72;5033668;28;20194;-70
2021/03/12 02:44:59;;;;;;;0.70;0.60;;;5.90;99.90;;;6.68;100.00;91560.97;5044614;28;20976;-71
2021/03/12 02:47:31;;;;;;;0.70;0.68;;;6.10;99.90;;;6.64;100.00;90236.41;5048746;28;20293;-71
2021/03/12 02:50:08;;;;;;;0.70;0.60;;;6.00;99.90;;;6.55;100.00;90881.56;5052742;28;20213;-72
2021/03/12 02:52:37;;;;;;;0.70;0.60;;;5.90;99.90;;;6.58;100.00;89568.50;5053043;28;20649;-72
2021/03/12 02:55:08;;;;;;;0.70;0.60;;;6.00;99.90;;;6.61;100.00;88257.38;5051806;28;20193;-73
2021/03/12 02:57:48;;;;;;;0.70;0.60;;;5.90;99.90;;;6.62;100.00;87600.03;5050750;28;20559;-72
2021/03/12 03:00:16;;;;;;;0.70;0.60;;;6.00;99.90;;;6.58;100.00;85621.19;5047763;28;20197;-72
2021/03/12 03:03:02;;;;;;;0.70;0.60;;;6.00;99.90;;;6.62;100.00;85298.34;5032783;28;20681;-72
2021/03/12 03:05:42;;;;;;;0.70;0.68;;;6.00;99.90;;;6.72;100.00;82354.72;5041646;28;20694;-72
2021/03/12 03:08:12;;;;;;;0.70;0.60;;;6.10;99.90;;;6.64;100.00;81029.31;5041610;28;20191;-73
2021/03/12 03:10:40;;;;;;;0.70;0.60;;;6.10;99.90;;;6.81;100.00;80066.63;5044685;28;20210;-72
2021/03/12 03:13:10;;;;;;;0.70;0.60;;;6.20;99.90;;;6.79;100.00;78751.19;5038566;28;20185;-72
2021/03/12 03:15:38;;;;;;;0.70;0.60;;;6.20;99.90;;;6.94;100.00;73521.50;5051226;28;20190;-72
2021/03/12 03:18:10;;;;;;;0.70;0.60;;;6.30;99.90;;;6.97;100.00;71886.44;5051769;28;20631;-72
2021/03/12 03:20:42;;;;;;;0.70;0.60;;;6.30;99.90;;;6.86;100.00;74167.50;5052287;28;20432;-72
2021/03/12 03:23:10;;;;;;;0.70;0.60;;;6.20;99.90;;;6.93;100.00;69261.47;5052117;28;20523;-73
2021/03/12 03:25:41;;;;;;;0.80;0.77;;;6.30;99.90;;;6.99;100.00;63379.28;5050901;28;20561;-72
2021/03/12 03:28:13;;;;;;;0.70;0.70;;;6.30;99.90;;;7.02;100.00;53914.47;5051232;28;20464;-72
2021/03/12 03:30:40;;;;;;;0.70;0.60;;;6.40;99.90;;;7.03;100.00;57829.94;5051110;28;20545;-72
2021/03/12 03:33:13;;;;;;;0.70;0.60;;;6.40;99.90;;;7.15;100.00;47156.88;5051934;28;20471;-72
2021/03/12 03:35:41;;;;;;;0.70;0.53;;;6.50;99.90;;;7.05;100.00;48562.47;5044809;28;20934;-73
2021/03/12 03:38:08;;;;;;;0.70;0.60;;;6.40;99.90;;;7.11;100.00;49557.19;5051685;28;20495;-71
2021/03/12 03:40:36;;;;;;;0.70;0.60;;;6.40;99.90;;;7.03;100.00;52285.72;5051074;28;20197;-72
2021/03/12 03:43:06;;;;;;;0.70;0.60;;;6.30;99.90;;;7.03;100.00;57177.19;5059834;28;20527;-71
2021/03/12 03:45:34;;;;;;;0.70;0.60;;;6.30;99.90;;;6.78;100.00;60742.94;5050934;28;20201;-73
2021/03/12 03:48:24;;;;;;;0.70;0.60;;;6.20;99.90;;;7.00;100.00;65669.03;5052064;28;20282;-72
2021/03/12 03:50:52;;;;;;;0.70;0.60;;;6.30;99.90;;;6.92;100.00;65332.66;5051173;28;20304;-71
2021/03/12 03:53:20;;;;;;;0.70;0.60;;;6.30;99.90;;;6.86;100.00;70889.72;5051086;28;20251;-72
2021/03/12 03:55:50;;;;;;;0.70;0.65;;;6.20;99.90;;;6.95;100.00;75818.56;5055509;28;20546;-72
2021/03/12 03:58:18;;;;;;;0.70;0.60;;;6.30;99.90;;;7.06;100.00;73864.94;5057913;28;20227;-71
2021/03/12 04:00:51;;;;;;;0.70;0.60;;;6.30;99.90;;;7.04;100.00;75829.91;5058189;28;20249;-71
2021/03/12 04:03:23;;;;;;;0.70;0.60;;;6.30;99.90;;;7.09;100.00;78135.06;5074287;28;21072;-70
2021/03/12 04:05:58;;;;;;;0.70;0.60;;;6.30;99.90;;;7.17;100.00;77160.91;5058550;28;20197;-71
2021/03/12 04:08:28;;;;;;;0.70;0.60;;;6.30;99.90;;;7.03;100.00;83055.50;5057356;28;20448;-69
2021/03/12 04:10:57;;;;;;;0.70;0.60;;;6.30;99.90;;;7.14;100.00;83728.56;5050718;28;20465;-72
2021/03/12 04:13:28;;;;;;;0.70;0.60;;;6.40;99.90;;;7.11;100.00;79451.63;5063538;28;20194;-72
2021/03/12 04:15:57;;;;;;;0.70;0.60;;;6.40;99.90;;;7.12;100.00;85371.41;5058426;28;20424;-72
2021/03/12 04:18:28;;;;;;;0.70;0.60;;;6.30;99.90;;;7.08;100.00;87010.38;5057771;28;20568;-72
2021/03/12 04:20:57;;;;;;;0.70;0.60;;;6.30;99.90;;;7.28;100.00;88028.09;5057566;28;20182;-70
2021/03/12 04:23:26;;;;;;;0.70;0.60;;;6.40;99.90;;;7.34;100.00;83757.13;5058391;28;20458;-70
2021/03/12 04:25:53;;;;;;;0.70;0.60;;;6.40;99.90;;;7.06;100.00;89972.22;5048691;28;20450;-71
2021/03/12 04:28:21;;;;;;;0.70;0.60;;;6.30;99.90;;;7.25;100.00;94618.63;5057227;28;20543;-71
2021/03/12 04:30:53;;;;;;;0.70;0.60;;;6.30;99.90;;;7.06;100.00;96238.19;5057624;28;20471;-70
2021/03/12 04:33:21;;;;;;;0.70;0.60;;;6.30;99.90;;;6.99;100.00;100189.25;5055967;28;20460;-71
2021/03/12 04:35:55;;;;;;;0.70;0.60;;;6.30;99.90;;;7.08;100.00;99874.50;5053505;28;20443;-71
2021/03/12 04:38:26;;;;;;;0.70;0.60;;;6.30;99.90;;;7.06;100.00;99539.75;5051732;28;20546;-71
2021/03/12 04:40:54;;;;;;;0.70;0.50;;;6.30;99.90;;;6.98;100.00;104817.34;5038537;28;20451;-71
2021/03/12 04:43:26;;;;;;;0.70;0.50;;;6.20;99.90;;;6.96;100.00;104151.19;5054014;28;20794;-73
2021/03/12 04:45:55;;;;;;;0.70;0.60;;;6.20;99.90;;;6.98;100.00;101178.94;5053680;28;20513;-73
2021/03/12 04:48:23;;;;;;;0.70;0.60;;;6.20;99.90;;;6.90;100.00;102486.97;5054308;28;20471;-72
2021/03/12 04:50:53;;;;;;;0.70;0.60;;;6.20;99.90;;;6.86;100.00;102479.84;5054765;28;20236;-71
2021/03/12 04:53:20;;;;;;;0.70;0.60;;;6.20;99.90;;;7.08;100.00;103180.50;5039319;28;20423;-71
2021/03/12 04:55:49;;;;;;;0.70;0.60;;;6.20;99.90;;;7.01;100.00;100853.69;5047499;28;20443;-72
2021/03/12 04:58:23;;;;;;;0.70;0.60;;;6.20;99.90;;;7.14;100.00;96251.59;5051900;28;20439;-71
2021/03/12 05:00:52;;;;;;;0.70;0.60;;;6.30;99.90;;;7.25;100.00;95609.72;5057025;28;20436;-71
2021/03/12 05:03:20;;;;;;;0.70;0.60;;;6.30;99.90;;;7.21;100.00;89336.69;5063491;28;20553;-73
2021/03/12 05:05:49;;;;;;;0.70;0.60;;;6.30;99.90;;;7.11;100.00;89320.34;5055647;28;20535;-71
2021/03/12 05:08:19;;;;;;;0.70;0.60;;;6.30;99.90;;;6.95;100.00;93910.34;5052675;28;20458;-72
2021/03/12 05:11:09;;;;;;;0.70;0.57;;;6.20;99.90;;;6.87;100.00;99507.72;5052612;28;20458;-73
2021/03/12 05:13:57;;;;;;;0.70;0.50;;;6.10;99.90;;;6.69;100.00;101790.44;5056190;28;20874;-71
2021/03/12 05:16:29;;;;;;;0.70;0.60;;;6.10;99.90;;;6.75;100.00;103452.81;5053007;28;20478;-72
2021/03/12 05:18:58;;;;;;;0.70;0.60;;;6.10;99.90;;;6.96;100.00;103821.31;5071383;28;20518;-71
2021/03/12 05:21:27;;;;;;;0.68;0.50;;;6.10;99.90;;;7.06;100.00;96897.56;5054496;28;21024;-72
2021/03/12 05:23:55;;;;;;;0.70;0.60;;;6.30;99.90;;;7.11;100.00;92287.47;5071398;28;20179;-72
2021/03/12 05:26:22;;;;;;;0.70;0.60;;;6.30;99.90;;;6.93;100.00;92918.66;5053705;28;20967;-72
2021/03/12 05:28:53;;;;;;;0.70;0.60;;;6.30;99.90;;;6.96;100.00;96551.50;5071056;28;20471;-74
2021/03/12 05:31:24;;;;;;;0.70;0.60;;;6.20;99.90;;;6.94;100.00;95228.16;5054194;28;20491;-71
2021/03/12 05:33:52;;;;;;;0.70;0.60;;;6.20;99.90;;;6.96;100.00;89627.13;5044319;28;20590;-72
2021/03/12 05:36:21;;;;;;;0.70;0.60;;;6.30;99.90;;;6.98;100.00;90948.16;5035203;28;20551;-72
2021/03/12 05:38:49;;;;;;;0.70;0.60;;;6.20;99.90;;;6.78;100.00;86637.31;5042915;28;20448;-72
2021/03/12 05:41:18;;;;;;;0.70;0.60;;;6.20;99.90;;;6.67;100.00;82346.81;5055303;28;20424;-71
2021/03/12 05:43:46;;;;;;;0.70;0.60;;;6.20;99.90;;;6.57;100.00;85948.53;5055074;28;20194;-72
2021/03/12 05:46:14;;;;;;;0.70;0.60;;;6.00;99.90;;;6.64;100.00;83656.88;5055292;28;20181;-72
2021/03/12 05:48:42;;;;;;;0.70;0.60;;;6.00;99.90;;;6.72;100.00;78085.78;5055251;28;20217;-71
2021/03/12 05:51:13;;;;;;;0.70;0.60;;;6.10;99.90;;;6.77;100.00;80390.13;5053982;28;20213;-73
2021/03/12 05:53:41;;;;;;;0.70;0.60;;;6.10;99.90;;;6.82;100.00;77113.56;5053827;28;20387;-72
2021/03/12 05:56:15;;;;;;;0.70;0.60;;;6.10;99.90;;;7.02;100.00;72220.50;5053665;28;20199;-72
2021/03/12 05:59:03;;;;;;;0.70;0.60;;;6.30;99.90;;;6.93;100.00;75815.94;5055094;28;20166;-72
2021/03/12 06:01:41;;;;;;;0.70;0.60;;;6.20;99.90;;;6.97;100.00;85678.06;5052700;28;20657;-71
2021/03/12 06:04:12;;;;;;;0.70;0.60;;;6.20;99.90;;;7.14;100.00;83071.50;5045326;28;20836;-72
2021/03/12 06:06:44;;;;;;;0.70;0.60;;;6.30;99.90;;;7.08;100.00;76163.38;5035087;28;20193;-71
2021/03/12 06:09:12;;;;;;;0.70;0.60;;;6.30;99.90;;;6.95;100.00;82715.16;5044176;28;20444;-72
2021/03/12 06:11:41;;;;;;;0.70;0.60;;;6.30;99.90;;;6.93;100.00;89622.44;5053260;28;20892;-72
2021/03/12 06:14:09;;;;;;;0.70;0.60;;;6.30;99.90;;;6.67;100.00;101126.16;5053899;28;20803;-72
2021/03/12 06:16:49;;;;;;;0.70;0.60;;;6.10;99.90;;;6.73;100.00;105765.03;5070422;28;20531;-72
2021/03/12 06:19:33;;;;;;;0.70;0.50;;;6.10;99.90;;;6.97;100.00;100516.22;5052993;28;20217;-72
2021/03/12 06:22:19;;;;;;;0.70;0.50;;;6.30;99.90;;;7.08;100.00;96571.66;5070451;28;20194;-72
2021/03/12 06:24:51;;;;;;;0.70;0.50;;;6.30;99.90;;;7.03;100.00;98874.69;5053161;28;21006;-70
2021/03/12 06:27:34;;;;;;;0.70;0.60;;;6.30;99.90;;;7.10;100.00;94263.97;5073571;28;20439;-72
2021/03/12 06:30:25;;;;;;;0.70;0.60;;;6.40;99.90;;;7.18;100.00;91309.56;5073187;28;20937;-72
2021/03/12 06:33:30;;;;;;;0.70;0.60;;;6.50;99.90;;;7.32;100.00;88693.19;5073264;28;20484;-72
2021/03/12 06:36:29;;;;;;;0.70;0.60;;;6.50;99.90;;;7.32;100.00;77180.50;5035694;28;20912;-71
2021/03/12 06:39:12;;;;;;;0.70;0.50;;;6.50;99.90;;;7.42;100.00;65061.91;5033336;28;20983;-74
2021/03/12 06:42:07;;;;;;;0.70;0.60;;;6.60;99.90;;;7.38;100.00;53100.06;5036355;28;20452;-72
2021/03/12 06:44:38;;;;;;;0.70;0.60;;;6.70;99.90;;;7.45;100.00;55752.75;5033210;28;20530;-73
2021/03/12 06:47:12;;;;;;;0.70;0.53;;;6.70;99.90;;;7.53;100.00;49295.81;5033672;28;20432;-73
2021/03/12 06:49:54;;;;;;;0.70;0.60;;;6.80;99.90;;;7.60;100.00;42772.97;5033090;28;20554;-73
2021/03/12 06:52:35;;;;;;;0.70;0.50;;;6.80;99.90;;;7.82;100.00;32872.81;5033177;28;20499;-73
2021/03/12 06:55:11;;;;;;;0.70;0.60;;;6.90;99.90;;;7.81;100.00;29738.72;5037714;28;20994;-72
2021/03/12 06:58:08;;;;;;;0.70;0.60;;;6.90;99.90;;;7.81;100.00;36244.56;5053115;28;20999;-72
2021/03/12 07:00:45;;;;;;;0.70;0.60;;;7.00;99.90;;;7.86;100.00;23219.97;5053034;28;20586;-75
2021/03/12 07:03:30;;;;;;;0.70;0.50;;;7.00;99.90;;;7.83;100.00;20508.16;5033133;28;20471;-74
2021/03/12 07:06:43;;;;;;;0.70;0.60;;;7.10;99.90;;;7.97;100.00;20508.78;5049135;28;20778;-73
2021/03/12 07:09:12;;;;;;;0.70;0.60;;;7.20;99.90;;;8.33;100.00;22262.25;5053349;28;20452;-72
2021/03/12 07:11:56;;;;;;;0.70;0.50;;;7.20;99.90;;;8.10;100.00;21640.91;5033959;28;20475;-74
2021/03/12 07:14:42;;;;;;;0.70;0.60;;;7.20;99.90;;;8.09;100.00;32022.25;5038390;28;20408;-73
2021/03/12 07:17:36;;;;;;;0.70;0.50;;;7.30;99.90;;;8.11;100.00;29081.41;5032952;28;20441;-74
2021/03/12 07:20:18;;;;;;;0.70;0.60;;;7.30;99.90;;;8.15;100.00;32662.22;5032775;28;20450;-73
2021/03/12 07:22:47;;;;;;;0.70;0.60;;;7.30;99.90;;;7.96;100.00;32384.53;5033959;28;20437;-74
2021/03/12 07:25:22;;;;;;;0.70;0.60;;;7.30;99.90;;;8.53;100.00;35661.75;5020105;28;20460;-74
2021/03/12 07:28:00;;;;;;;0.70;0.60;;;7.40;99.90;;;8.84;100.00;21423.50;5050564;28;20530;-74
2021/03/12 07:30:38;;;;;;;0.70;0.60;;;7.50;99.90;;;8.87;100.00;22224.31;5040919;28;20479;-72
2021/03/12 07:33:09;;;;;;;0.70;0.60;;;7.50;99.90;;;8.55;100.00;29275.03;5033597;28;20466;-75
2021/03/12 07:35:49;;;;;;;0.70;0.57;;;7.50;99.90;;;8.52;100.00;31923.00;5044684;28;20551;-74
2021/03/12 07:38:24;;;;;;;0.70;0.50;;;7.50;99.90;;;8.45;100.00;36342.44;5053337;28;20881;-75
2021/03/12 07:41:08;;;;;;;0.70;0.60;;;7.50;99.90;;;8.40;100.00;39824.94;5050376;28;20444;-72
2021/03/12 07:44:00;;;;;;;0.70;0.60;;;7.50;99.90;;;8.49;100.00;43341.81;5057845;28;20545;-75
2021/03/12 07:46:48;;;;;;;0.70;0.60;;;7.50;99.90;;;8.34;100.00;45763.78;5054065;28;20451;-73
2021/03/12 07:49:36;;;;;;;0.70;0.57;;;7.60;99.90;;;8.66;100.00;57605.38;5051098;28;20468;-73
2021/03/12 07:52:12;;;;;;;0.70;0.60;;;7.70;99.90;;;8.82;100.00;45883.72;5058049;28;20481;-71
2021/03/12 07:54:50;;;;;;;0.70;0.60;;;7.70;99.90;;;8.87;100.00;20832.78;5033435;28;20891;-74
2021/03/12 07:57:41;;;;;;;0.70;0.57;;;7.90;99.90;;;9.04;100.00;10474.47;5033330;28;20464;-73
2021/03/12 08:00:26;;;;;;;0.70;0.60;;;8.00;99.90;;;9.03;100.00;8346.00;5067412;28;21035;-74
2021/03/12 08:03:29;;;;;;;0.70;0.60;;;8.10;99.90;;;9.33;100.00;5732.88;5051649;28;20964;-73
2021/03/12 08:06:34;;;;;;;0.70;0.60;;;8.40;99.90;;;9.45;100.00;-4233.16;5044939;28;20458;-74
2021/03/12 08:09:36;;;;;;;0.70;0.60;;;8.50;99.90;;;9.61;100.00;-9507.00;5033421;28;20837;-73
2021/03/12 08:12:29;;;;;;;0.70;0.60;;;8.50;99.90;;;9.42;100.00;-12855.03;5033098;28;20549;-74
2021/03/12 08:15:11;;;;;;;0.70;0.60;;;8.40;99.90;;;9.14;100.00;-7930.34;5017599;28;20431;-74
2021/03/12 08:18:24;;;;;;;0.70;0.60;;;8.30;99.90;;;9.24;100.00;-938.41;5032191;28;20454;-74
2021/03/12 08:21:34;;;;;;;0.70;0.60;;;8.40;99.90;;;9.05;100.00;528.94;5033683;28;20424;-73
2021/03/12 08:24:45;;;;;;;0.70;0.60;;;8.30;99.90;;;9.21;100.00;2910.53;5032166;28;20447;-74
2021/03/12 08:27:49;;;;;;;0.70;0.60;;;8.30;99.90;;;9.10;100.00;7041.97;5031690;28;20763;-74
2021/03/12 08:30:49;;;;;;;1.47;1.30;;;8.30;99.90;;;8.99;100.00;5999.56;5039552;28;20464;-73
2021/03/12 08:33:40;;;;;;;0.70;0.60;;;8.20;99.90;;;9.13;100.00;17899.13;5034896;28;20506;-74
2021/03/12 08:36:27;;;;;;;0.70;0.60;;;8.20;99.90;;;9.11;100.00;24817.91;5033135;28;20432;-74
2021/03/12 08:39:26;;;;;;;0.70;0.60;;;8.20;99.90;;;9.18;100.00;14728.97;5032905;28;20434;-73
2021/03/12 08:42:59;;;;;;;0.70;0.60;;;8.20;99.90;;;9.09;100.00;18704.28;5034968;28;20446;-74
2021/03/12 08:45:49;;;;;;;0.70;0.50;;;8.20;99.90;;;9.24;100.00;12389.56;5036665;28;20973;-74
2021/03/12 08:48:28;;;;;;;0.70;0.60;;;8.30;99.90;;;9.07;100.00;19060.09;5035789;28;20466;-74
2021/03/12 08:51:04;;;;;;;0.70;0.63;;;8.30;99.90;;;9.31;100.00;23043.28;5035426;28;20503;-74
2021/03/12 08:53:39;;;;;;;0.70;0.60;;;8.30;99.90;;;9.33;100.00;30334.72;5042120;28;20448;-73
2021/03/12 08:56:09;;;;;;;0.70;0.60;;;8.30;99.90;;;9.29;100.00;38371.56;5050540;28;20483;-73
2021/03/12 08:58:46;;;;;;;0.70;0.60;;;8.40;99.90;;;9.38;100.00;41970.72;5068011;28;20536;-74
2021/03/12 09:01:31;;;;;;;0.70;0.60;;;8.50;99.90;;;9.46;100.00;42284.75;5068438;28;20916;-73
2021/03/12 09:04:05;;;;;;;0.70;0.60;;;8.50;99.90;;;9.52;100.00;48896.41;5046271;28;20456;-73
2021/03/12 09:06:47;;;;;;;0.70;0.60;;;8.40;99.90;;;9.33;100.00;51653.13;5053856;28;20444;-73
2021/03/12 09:09:26;;;;;;;0.70;0.60;;;8.40;99.90;;;9.67;100.00;52502.59;5055830;28;20941;-73
2021/03/12 09:12:33;;;;;;;0.70;0.60;;;8.50;99.90;;;9.71;100.00;39179.25;5054551;28;20947;-73
2021/03/12 09:15:28;;;;;;;0.70;0.60;;;8.70;99.90;;;9.60;100.00;38482.06;5067925;28;20519;-74
2021/03/12 09:18:16;;;;;;;0.70;0.60;;;8.80;99.90;;;9.76;100.00;43059.56;5054940;28;20561;-74
2021/03/12 09:20:51;;;;;;;0.70;0.60;;;8.70;99.90;;;9.85;100.00;34276.22;5071278;28;20442;-73
2021/03/12 09:23:35;;;;;;;0.70;0.60;;;8.80;99.90;;;9.88;100.00;29138.38;5071527;28;20441;-74
2021/03/12 09:26:04;;;;;;;0.70;0.60;;;8.80;99.90;;;9.88;100.00;28894.53;5063562;28;20461;-73
2021/03/12 09:28:46;;;;;;;0.70;0.60;;;8.80;99.90;;;10.33;100.00;24516.75;5071572;28;20442;-74
2021/03/12 09:31:28;;;;;;;0.70;0.60;;;9.00;99.90;;;11.13;100.00;13729.22;5054395;28;20485;-74
2021/03/12 09:34:01;;;;;;;0.70;0.60;;;9.30;99.90;;;10.68;100.00;4002.03;5054618;28;20454;-73
2021/03/12 09:36:43;;;;;;;0.70;0.70;;;9.10;99.90;;;10.80;100.00;-8506.56;5055336;28;20464;-73
2021/03/12 09:39:28;;;;;;;0.80;0.80;;;9.50;99.90;;;11.24;100.00;-18914.41;5034541;28;20536;-73
2021/03/12 09:42:03;;;;;;;0.70;0.60;;;9.60;99.50;;;11.35;100.00;-20990.78;5034504;28;20450;-73
2021/03/12 09:44:39;;;;;;;0.70;0.70;;;9.70;99.20;;;11.52;100.00;-20868.19;5034284;28;20459;-73
2021/03/12 09:47:14;;;;;;;0.80;0.80;;;9.90;99.70;;;10.91;100.00;-20978.88;5034206;28;20433;-73
2021/03/12 09:49:49;;;;;;;0.70;0.60;;;9.70;97.80;;;10.50;100.00;-16616.00;5036970;28;20487;-74
2021/03/12 09:52:23;;;;;;;0.70;0.67;;;9.60;98.10;;;11.18;100.00;-13103.53;5035900;28;20477;-73
2021/03/12 09:54:58;;;;;;;0.70;0.60;;;9.70;97.60;;;10.70;100.00;-19605.78;5054438;28;20432;-73
2021/03/12 09:57:30;;;;;;;0.70;0.60;;;9.80;95.80;;;11.40;100.00;-19103.84;5077711;28;20454;-75
2021/03/12 10:00:08;;;;;;;0.70;0.60;;;10.10;95.50;;;11.54;100.00;-20996.03;5058766;28;20523;-73
2021/03/12 10:02:55;;;;;;;0.70;0.60;;;10.40;95.10;;;11.93;100.00;-20349.41;5074612;28;20401;-73
2021/03/12 10:05:41;;;;;;;0.70;0.63;;;10.60;94.00;;;11.83;100.00;-21003.75;5075371;28;20960;-73
2021/03/12 10:08:16;;;;;;;0.70;0.67;;;10.50;92.10;;;11.45;100.00;-20993.53;5060688;28;20774;-73
2021/03/12 10:11:05;;;;;;;0.73;0.70;;;10.20;92.10;;;11.37;100.00;-19916.06;5054103;28;20519;-73
2021/03/12 10:13:53;;;;;;;0.70;0.67;;;10.00;92.00;;;11.43;100.00;-15843.59;5054004;28;20433;-73
2021/03/12 10:16:39;;;;;;;0.70;0.60;;;9.80;92.70;;;11.37;100.00;-19035.50;5053720;28;20950;-72
2021/03/12 10:19:38;;;;;;;0.70;0.60;;;9.80;90.90;;;10.69;100.00;-18121.75;5053670;28;20463;-73
2021/03/12 10:22:17;;;;;;;0.70;0.63;;;9.90;88.70;;;11.26;100.00;-17612.75;5043983;28;20440;-73
2021/03/12 10:24:47;;;;;;;0.80;0.70;;;10.30;87.20;;;11.77;100.00;-21002.09;5034976;28;20873;-72
2021/03/12 10:27:20;;;;;;;0.70;0.60;;;10.10;83.20;;;11.12;100.00;-20984.69;5034620;28;20413;-73
2021/03/12 10:29:52;;;;;;;0.70;0.60;;;9.90;84.00;;;10.95;100.00;-20980.00;5035126;28;20416;-74
2021/03/12 10:32:22;;;;;;;0.70;0.60;;;9.90;83.30;;;11.33;100.00;-20990.22;5034921;28;20452;-74
2021/03/12 10:34:51;;;;;;;0.70;0.70;;;10.10;80.30;;;11.46;100.00;-20993.69;5034642;28;20457;-74
2021/03/12 10:37:24;;;;;;;0.70;0.60;;;10.30;74.70;;;11.79;100.00;-21002.66;5035018;28;20456;-71
2021/03/12 10:39:57;;;;;;;0.70;0.60;;;10.30;75.80;;;12.02;100.00;-21009.00;5036771;28;20441;-75
2021/03/12 10:42:27;;;;;;;0.80;0.80;;;10.30;74.70;;;11.44;100.00;-20993.25;5041204;28;20972;-72
2021/03/12 10:44:58;;;;;;;0.70;0.60;;;10.40;73.10;;;11.81;100.00;-21003.34;5046012;28;20525;-72
2021/03/12 10:47:26;;;;;;;0.70;0.60;;;10.50;75.90;;;12.05;100.00;-21009.72;5056630;28;20413;-74
2021/03/12 10:49:55;;;;;;;0.70;0.70;;;10.90;74.60;;;12.33;100.00;-21017.28;5053190;28;20499;-73
2021/03/12 10:52:28;;;;;;;0.80;0.70;;;10.90;71.30;;;12.22;100.00;-21014.25;5054618;28;20455;-76
2021/03/12 10:55:07;;;;;;;0.70;0.60;;;11.00;69.70;;;12.66;100.00;-21026.13;5053410;28;20481;-74
2021/03/12 10:57:41;;;;;;;0.70;0.60;;;11.40;67.70;;;12.81;100.00;-21030.28;5053048;28;20777;-74
2021/03/12 11:00:19;;;;;;;0.70;0.60;;;11.30;66.00;;;12.74;100.00;-21028.47;5053181;28;20428;-74
2021/03/12 11:02:47;;;;;;;0.80;0.70;;;11.50;63.60;;;13.12;100.00;-21038.53;5036998;28;20438;-74